createdAt,value
2019-02-25T00:00:31.574Z,36.90
2019-02-25T00:03:01.284Z,36.17
2019-02-25T00:05:30.871Z,39.80
2019-02-25T00:08:00.617Z,36.67
2019-02-25T00:10:30.229Z,38.30
2019-02-25T00:12:59.857Z,39.03
2019-02-25T00:15:30.829Z,39.40
2019-02-25T00:18:00.501Z,40.17
2019-02-25T00:20:30.110Z,41.20
2019-02-25T00:22:59.722Z,41.57
2019-02-25T00:25:31.862Z,41.73
2019-02-25T00:28:01.481Z,41.33
2019-02-25T00:30:31.089Z,46.13
2019-02-25T00:33:02.011Z,43.83
2019-02-25T00:35:34.182Z,43.50
2019-02-25T00:38:03.792Z,46.30
2019-02-25T00:40:33.413Z,46.63
2019-02-25T00:43:05.453Z,45.73
2019-02-25T00:45:35.065Z,47.03
2019-02-25T00:48:04.691Z,48.77
2019-02-25T00:50:34.299Z,47.40
2019-02-25T00:53:03.945Z,48.20
2019-02-25T00:55:33.611Z,48.90
2019-02-25T00:58:04.586Z,49.43
2019-02-25T01:00:34.211Z,47.43
2019-02-25T01:03:03.838Z,47.90
2019-02-25T01:05:33.581Z,48.47
2019-02-25T01:08:07.695Z,47.73
2019-02-25T01:10:35.328Z,48.93
2019-02-25T01:13:06.202Z,46.57
2019-02-25T01:15:38.243Z,45.93
2019-02-25T01:18:07.888Z,47.70
2019-02-25T01:20:37.495Z,47.13
2019-02-25T01:23:07.101Z,46.60
2019-02-25T01:25:36.780Z,48.40
2019-02-25T01:28:06.433Z,46.40
2019-02-25T01:30:37.313Z,47.40
2019-02-25T01:33:06.942Z,48.53
2019-02-25T01:35:36.606Z,47.77
2019-02-25T01:38:06.240Z,45.63
2019-02-25T01:40:35.858Z,46.73
2019-02-25T01:43:08.030Z,45.90
2019-02-25T01:45:37.634Z,45.67
2019-02-25T01:48:07.241Z,48.07
2019-02-25T01:50:36.900Z,43.20
2019-02-25T01:53:06.526Z,47.07
2019-02-25T01:55:36.144Z,45.77
2019-02-25T01:58:05.784Z,45.10
2019-02-25T02:00:35.409Z,45.20
2019-02-25T02:03:07.527Z,42.57
2019-02-25T02:05:37.125Z,42.73
2019-02-25T02:08:09.215Z,41.23
2019-02-25T02:10:38.832Z,40.00
2019-02-25T02:13:14.164Z,41.93
2019-02-25T02:15:38.150Z,40.87
2019-02-25T02:18:07.789Z,41.80
2019-02-25T02:20:37.413Z,38.97
2019-02-25T02:23:07.936Z,39.80
2019-02-25T02:25:37.545Z,38.20
2019-02-25T02:28:07.165Z,37.10
2019-02-25T02:30:36.826Z,38.13
2019-02-25T02:33:07.725Z,37.07
2019-02-25T02:35:37.334Z,39.27
2019-02-25T02:38:06.944Z,35.37
2019-02-25T02:40:36.630Z,34.93
2019-02-25T02:43:06.233Z,37.37
2019-02-25T02:45:39.992Z,35.47
2019-02-25T02:48:13.684Z,35.17
2019-02-25T02:50:43.329Z,35.33
2019-02-25T02:53:12.967Z,33.87
2019-02-25T02:55:42.642Z,33.70
2019-02-25T02:58:12.257Z,32.83
2019-02-25T03:00:41.924Z,32.77
2019-02-25T03:03:11.573Z,33.30
2019-02-25T03:05:41.251Z,33.97
2019-02-25T03:08:10.875Z,35.10
2019-02-25T03:10:43.008Z,33.63
2019-02-25T03:13:12.682Z,33.00
2019-02-25T03:15:42.309Z,30.93
2019-02-25T03:18:11.913Z,31.50
2019-02-25T03:20:41.573Z,31.43
2019-02-25T03:23:11.185Z,32.17
2019-02-25T03:25:43.377Z,29.77
2019-02-25T03:28:12.994Z,30.57
2019-02-25T03:30:42.617Z,27.40
2019-02-25T03:33:12.263Z,28.00
2019-02-25T03:35:41.876Z,28.50
2019-02-25T03:38:12.344Z,26.97
2019-02-25T03:40:41.961Z,26.77
2019-02-25T03:43:14.035Z,25.57
2019-02-25T03:45:43.643Z,26.33
2019-02-25T03:48:13.312Z,24.57
2019-02-25T03:50:42.930Z,24.30
2019-02-25T03:53:12.572Z,23.03
2019-02-25T03:55:42.258Z,22.47
2019-02-25T03:58:13.081Z,25.13
2019-02-25T04:00:42.745Z,22.03
2019-02-25T04:03:12.393Z,21.87
2019-02-25T04:05:43.211Z,20.80
2019-02-25T04:08:12.837Z,21.17
2019-02-25T04:10:44.954Z,20.47
2019-02-25T04:13:14.570Z,20.40
2019-02-25T04:15:45.206Z,20.90
2019-02-25T04:18:14.828Z,19.60
2019-02-25T04:20:44.428Z,20.83
2019-02-25T04:23:14.157Z,20.33
2019-02-25T04:25:43.847Z,20.90
2019-02-25T04:28:13.437Z,20.37
2019-02-25T04:30:43.101Z,19.90
2019-02-25T04:33:12.717Z,18.40
2019-02-25T04:35:42.332Z,21.57
2019-02-25T04:38:11.969Z,20.73
2019-02-25T04:40:41.589Z,21.57
2019-02-25T04:43:11.185Z,21.33
2019-02-25T04:45:40.850Z,20.00
2019-02-25T04:48:10.478Z,22.23
2019-02-25T04:50:40.125Z,21.93
2019-02-25T04:53:09.757Z,21.97
2019-02-25T04:55:39.365Z,20.13
2019-02-25T04:58:09.035Z,19.67
2019-02-25T05:00:38.650Z,21.00
2019-02-25T05:03:10.845Z,20.17
2019-02-25T05:05:40.469Z,18.87
2019-02-25T05:08:10.091Z,19.57
2019-02-25T05:10:41.034Z,18.23
2019-02-25T05:13:13.104Z,19.33
2019-02-25T05:15:43.438Z,19.77
2019-02-25T05:18:13.072Z,19.27
2019-02-25T05:20:42.702Z,19.73
2019-02-25T05:23:12.306Z,17.83
2019-02-25T05:25:41.946Z,18.70
2019-02-25T05:28:12.805Z,17.77
2019-02-25T05:30:42.424Z,18.07
2019-02-25T05:33:14.547Z,17.93
2019-02-25T05:35:44.223Z,18.93
2019-02-25T05:38:13.847Z,18.80
2019-02-25T05:40:43.472Z,17.77
2019-02-25T05:43:13.302Z,16.03
2019-02-25T05:45:42.999Z,17.17
2019-02-25T05:48:14.036Z,18.23
2019-02-25T05:50:43.744Z,18.13
2019-02-25T05:53:13.622Z,18.03
2019-02-25T05:55:45.852Z,18.17
2019-02-25T05:58:15.551Z,17.77
2019-02-25T06:00:45.181Z,18.43
2019-02-25T06:03:14.926Z,17.13
2019-02-25T06:05:44.653Z,17.83
2019-02-25T06:08:14.525Z,16.60
2019-02-25T06:10:44.168Z,15.13
2019-02-25T06:13:13.894Z,16.90
2019-02-25T06:15:43.680Z,16.30
2019-02-25T06:18:14.505Z,15.93
2019-02-25T06:20:44.221Z,15.30
2019-02-25T06:23:13.837Z,17.27
2019-02-25T06:25:43.443Z,16.50
2019-02-25T06:28:13.085Z,15.67
2019-02-25T06:30:42.706Z,16.30
2019-02-25T06:33:12.336Z,14.57
2019-02-25T06:35:41.997Z,15.60
2019-02-25T06:38:11.706Z,13.93
2019-02-25T06:40:41.314Z,15.13
2019-02-25T06:43:10.933Z,13.63
2019-02-25T06:45:40.570Z,15.00
2019-02-25T06:48:10.197Z,12.73
2019-02-25T06:50:44.581Z,11.90
2019-02-25T06:53:14.264Z,12.20
2019-02-25T06:55:43.874Z,11.37
2019-02-25T06:58:13.801Z,12.20
2019-02-25T07:00:43.466Z,11.87
2019-02-25T07:03:13.208Z,10.53
2019-02-25T07:05:56.049Z,9.67
2019-02-25T07:09:04.394Z,11.23
2019-02-25T07:11:39.462Z,10.27
2019-02-25T07:14:18.435Z,10.57
2019-02-25T07:17:00.407Z,10.93
2019-02-25T07:19:37.287Z,9.83
2019-02-25T07:22:25.441Z,9.87
2019-02-25T07:25:02.864Z,10.07
2019-02-25T07:27:41.973Z,11.07
2019-02-25T07:30:17.488Z,10.73
2019-02-25T07:32:52.498Z,9.73
2019-02-25T07:35:34.084Z,10.07
2019-02-25T07:38:10.085Z,9.97
2019-02-25T07:40:45.011Z,9.27
2019-02-25T07:43:22.926Z,9.63
2019-02-25T07:46:03.858Z,9.57
2019-02-25T07:48:38.578Z,9.90
2019-02-25T07:51:18.577Z,9.83
2019-02-25T07:53:55.642Z,8.40
2019-02-25T07:57:06.950Z,9.00
2019-02-25T07:59:41.826Z,8.50
2019-02-25T08:02:16.572Z,8.83
2019-02-25T08:04:51.643Z,8.20
2019-02-25T08:07:38.520Z,8.93
2019-02-25T08:10:16.087Z,9.47
2019-02-25T08:12:59.206Z,9.23
2019-02-25T08:15:34.000Z,9.13
2019-02-25T08:18:09.861Z,9.83
2019-02-25T08:20:53.861Z,9.40
2019-02-25T08:23:30.094Z,10.37
2019-02-25T08:28:10.746Z,9.40
2019-02-25T08:30:55.098Z,8.83
2019-02-25T08:33:33.948Z,8.50
2019-02-25T08:37:03.628Z,8.93
2019-02-25T08:39:37.514Z,7.83
2019-02-25T08:42:12.704Z,7.23
2019-02-25T08:44:54.355Z,7.77
2019-02-25T08:47:33.474Z,7.23
2019-02-25T08:50:06.113Z,7.77
2019-02-25T08:52:35.722Z,8.70
2019-02-25T08:55:08.291Z,8.97
2019-02-25T08:57:37.943Z,9.17
2019-02-25T09:00:14.224Z,8.47
2019-02-25T09:02:43.848Z,8.60
2019-02-25T09:05:13.666Z,8.53
2019-02-25T09:07:43.296Z,9.30
2019-02-25T09:10:15.796Z,9.73
2019-02-25T09:12:48.875Z,8.87
2019-02-25T09:15:18.506Z,9.80
2019-02-25T09:17:48.358Z,10.40
2019-02-25T09:20:19.240Z,9.60
2019-02-25T09:22:49.325Z,10.07
2019-02-25T09:25:21.320Z,10.17
2019-02-25T09:27:52.385Z,10.20
2019-02-25T09:30:21.999Z,12.20
2019-02-25T09:32:51.613Z,11.87
2019-02-25T09:35:22.445Z,10.57
2019-02-25T09:37:52.037Z,11.50
2019-02-25T09:40:21.653Z,11.63
2019-02-25T09:42:51.277Z,11.97
2019-02-25T09:45:20.883Z,11.43
2019-02-25T09:47:50.509Z,13.10
2019-02-25T09:50:20.140Z,12.73
2019-02-25T09:52:50.965Z,13.27
2019-02-25T09:55:20.561Z,12.87
2019-02-25T09:57:50.251Z,12.93
2019-02-25T10:00:19.859Z,12.97
2019-02-25T10:02:49.472Z,12.60
2019-02-25T10:05:19.097Z,13.17
2019-02-25T10:07:48.749Z,13.90
2019-02-25T10:10:18.421Z,13.20
2019-02-25T10:12:48.025Z,12.37
2019-02-25T10:15:17.682Z,12.90
2019-02-25T10:17:49.785Z,11.90
2019-02-25T10:20:19.378Z,12.23
2019-02-25T10:22:49.001Z,10.87
2019-02-25T10:25:18.614Z,11.30
2019-02-25T10:27:49.835Z,11.20
2019-02-25T10:30:19.038Z,11.87
2019-02-25T10:32:48.625Z,11.50
2019-02-25T10:35:18.829Z,12.20
2019-02-25T10:37:49.687Z,12.43
2019-02-25T10:40:24.563Z,11.77
2019-02-25T10:42:53.026Z,12.03
2019-02-25T10:45:22.637Z,12.57
2019-02-25T10:47:57.745Z,13.87
2019-02-25T10:50:23.164Z,12.10
2019-02-25T10:52:52.785Z,13.27
2019-02-25T10:55:27.255Z,12.73
2019-02-25T10:57:59.786Z,12.77
2019-02-25T11:00:27.703Z,11.60
2019-02-25T11:02:58.180Z,11.93
2019-02-25T11:05:29.919Z,11.40
2019-02-25T11:07:56.707Z,11.57
2019-02-25T11:10:34.738Z,10.90
2019-02-25T11:13:04.401Z,10.53
2019-02-25T11:15:34.429Z,11.43
2019-02-25T11:18:04.279Z,11.03
2019-02-25T11:20:35.470Z,10.20
2019-02-25T11:23:03.591Z,10.97
2019-02-25T11:25:33.287Z,10.40
2019-02-25T11:28:04.948Z,10.20
2019-02-25T11:30:32.593Z,11.37
2019-02-25T11:33:02.270Z,11.80
2019-02-25T11:35:34.048Z,13.27
2019-02-25T11:38:01.777Z,13.93
2019-02-25T11:40:34.096Z,11.77
2019-02-25T11:43:03.325Z,11.67
2019-02-25T11:45:32.931Z,11.67
2019-02-25T11:48:02.596Z,12.27
2019-02-25T11:50:32.213Z,11.80
2019-02-25T11:53:01.858Z,11.23
2019-02-25T11:55:31.976Z,12.43
2019-02-25T11:58:03.171Z,11.23
2019-02-25T12:00:32.799Z,11.30
2019-02-25T12:03:04.889Z,11.90
2019-02-25T12:05:34.485Z,10.80
2019-02-25T12:08:07.856Z,11.57
2019-02-25T12:10:37.469Z,10.67
2019-02-25T12:13:07.073Z,12.43
2019-02-25T12:15:37.933Z,12.80
2019-02-25T12:18:07.555Z,12.03
2019-02-25T12:20:37.173Z,11.80
2019-02-25T12:23:06.801Z,12.50
2019-02-25T12:25:36.454Z,13.13
2019-02-25T12:28:06.053Z,12.50
2019-02-25T12:30:35.669Z,12.17
2019-02-25T12:33:06.524Z,12.80
2019-02-25T12:35:36.136Z,12.70
2019-02-25T12:38:05.736Z,12.10
2019-02-25T12:40:39.032Z,11.30
2019-02-25T12:43:09.863Z,12.80
2019-02-25T12:45:39.469Z,12.63
2019-02-25T12:48:10.297Z,13.23
2019-02-25T12:50:40.004Z,12.17
2019-02-25T12:53:09.598Z,12.47
2019-02-25T12:55:39.210Z,12.83
2019-02-25T12:58:08.856Z,14.60
2019-02-25T13:00:38.453Z,12.90
2019-02-25T13:03:08.152Z,13.83
2019-02-25T13:05:38.086Z,12.57
2019-02-25T13:08:08.169Z,13.40
2019-02-25T13:10:39.089Z,16.40
2019-02-25T13:13:08.736Z,13.10
2019-02-25T13:15:38.349Z,12.17
2019-02-25T13:18:07.978Z,11.10
2019-02-25T13:20:37.621Z,11.67
2019-02-25T13:23:07.299Z,11.50
2019-02-25T13:25:36.918Z,11.20
2019-02-25T13:28:06.605Z,10.50
2019-02-25T13:30:37.426Z,10.33
2019-02-25T13:33:07.048Z,10.20
2019-02-25T13:35:36.723Z,10.73
2019-02-25T13:38:06.448Z,11.50
2019-02-25T13:40:36.094Z,11.40
2019-02-25T13:43:05.753Z,11.60
2019-02-25T13:45:35.377Z,11.43
2019-02-25T13:48:06.253Z,10.97
2019-02-25T13:50:35.892Z,10.57
2019-02-25T13:53:05.729Z,10.73
2019-02-25T13:55:35.513Z,10.87
2019-02-25T13:58:05.147Z,12.33
2019-02-25T14:00:35.985Z,12.27
2019-02-25T14:03:06.788Z,12.30
2019-02-25T14:05:36.503Z,13.23
2019-02-25T14:08:06.186Z,14.57
2019-02-25T14:10:35.857Z,13.47
2019-02-25T14:13:05.487Z,11.97
2019-02-25T14:15:35.129Z,12.40
2019-02-25T14:18:07.253Z,11.80
2019-02-25T14:20:36.897Z,12.10
2019-02-25T14:23:06.505Z,12.87
2019-02-25T14:25:38.406Z,10.97
2019-02-25T14:28:08.278Z,10.77
2019-02-25T14:30:37.546Z,13.20
2019-02-25T14:33:09.574Z,11.40
2019-02-25T14:35:40.546Z,12.13
2019-02-25T14:38:15.317Z,10.70
2019-02-25T14:40:43.858Z,11.20
2019-02-25T14:43:14.822Z,11.93
2019-02-25T14:45:41.893Z,13.00
2019-02-25T14:48:11.304Z,12.10
2019-02-25T14:50:40.362Z,11.37
2019-02-25T14:53:11.569Z,11.30
2019-02-25T14:55:42.929Z,12.13
2019-02-25T14:58:12.536Z,10.20
2019-02-25T15:00:40.249Z,11.93
2019-02-25T15:03:11.101Z,10.90
2019-02-25T15:05:40.774Z,11.57
2019-02-25T15:08:10.403Z,11.40
2019-02-25T15:10:42.709Z,10.50
2019-02-25T15:13:10.624Z,10.47
2019-02-25T15:15:41.714Z,10.93
2019-02-25T15:18:09.875Z,10.90
2019-02-25T15:20:40.809Z,11.13
2019-02-25T15:23:12.736Z,11.57
2019-02-25T15:25:43.164Z,12.00
2019-02-25T15:28:12.010Z,11.43
2019-02-25T15:30:41.081Z,11.50
2019-02-25T15:33:12.033Z,10.93
2019-02-25T15:35:43.826Z,10.73
2019-02-25T15:38:12.725Z,10.37
2019-02-25T15:40:43.593Z,10.47
2019-02-25T15:43:15.812Z,10.10
2019-02-25T15:45:42.905Z,10.33
2019-02-25T15:48:19.206Z,10.50
2019-02-25T15:50:52.837Z,12.23
2019-02-25T15:53:20.918Z,12.13
2019-02-25T15:55:50.542Z,12.97
2019-02-25T15:58:22.729Z,13.80
2019-02-25T16:00:52.341Z,13.70
2019-02-25T16:03:22.062Z,13.83
2019-02-25T16:05:54.477Z,14.20
2019-02-25T16:08:23.839Z,12.27
2019-02-25T16:10:54.025Z,12.70
2019-02-25T16:13:22.957Z,14.63
2019-02-25T16:15:53.881Z,14.77
2019-02-25T16:18:25.331Z,13.30
2019-02-25T16:20:54.643Z,14.83
2019-02-25T16:23:25.778Z,15.17
2019-02-25T16:25:54.903Z,14.67
2019-02-25T16:28:23.700Z,15.03
2019-02-25T16:30:53.393Z,13.57
2019-02-25T16:33:24.136Z,15.10
2019-02-25T16:35:52.755Z,14.63
2019-02-25T16:38:24.907Z,13.43
2019-02-25T16:40:56.604Z,15.70
2019-02-25T16:43:23.466Z,13.73
2019-02-25T16:45:54.361Z,13.90
2019-02-25T16:48:25.964Z,13.43
2019-02-25T16:50:53.688Z,13.33
2019-02-25T16:53:23.521Z,14.00
2019-02-25T16:55:53.400Z,13.67
2019-02-25T16:58:23.069Z,12.87
2019-02-25T17:00:56.212Z,13.40
2019-02-25T17:03:22.408Z,13.97
2019-02-25T17:05:53.382Z,13.97
2019-02-25T17:08:24.009Z,13.10
2019-02-25T17:10:53.955Z,13.13
2019-02-25T17:13:23.566Z,13.60
2019-02-25T17:15:53.214Z,11.17
2019-02-25T17:18:22.857Z,12.77
2019-02-25T17:20:52.506Z,13.63
2019-02-25T17:23:22.778Z,11.70
2019-02-25T17:25:51.842Z,10.73
2019-02-25T17:28:22.661Z,10.90
2019-02-25T17:30:53.671Z,12.03
2019-02-25T17:33:24.018Z,11.47
2019-02-25T17:35:54.231Z,10.83
2019-02-25T17:38:24.644Z,10.40
2019-02-25T17:40:53.608Z,11.20
2019-02-25T17:43:27.378Z,11.00
2019-02-25T17:46:00.335Z,10.33
2019-02-25T17:48:29.179Z,11.90
2019-02-25T17:50:59.909Z,11.93
2019-02-25T17:53:30.529Z,12.37
2019-02-25T17:55:59.852Z,13.27
2019-02-25T17:58:27.835Z,13.53
2019-02-25T18:01:01.079Z,13.33
2019-02-25T18:03:29.546Z,13.87
2019-02-25T18:06:00.695Z,14.80
2019-02-25T18:08:30.430Z,13.67
2019-02-25T18:10:58.604Z,14.80
2019-02-25T18:13:30.669Z,13.73
2019-02-25T18:16:00.323Z,12.70
2019-02-25T18:18:29.954Z,15.03
2019-02-25T18:20:59.609Z,14.30
2019-02-25T18:23:29.202Z,15.93
2019-02-25T18:25:58.895Z,17.80
2019-02-25T18:28:28.503Z,16.50
2019-02-25T18:31:00.234Z,18.13
2019-02-25T18:33:29.124Z,17.80
2019-02-25T18:36:00.243Z,18.37
2019-02-25T18:38:29.625Z,18.93
2019-02-25T18:41:00.322Z,18.23
2019-02-25T18:43:30.986Z,17.83
2019-02-25T18:46:02.278Z,16.77
2019-02-25T18:48:32.886Z,17.63
2019-02-25T18:51:03.629Z,20.03
2019-02-25T18:53:34.321Z,17.23
2019-02-25T18:56:05.243Z,20.27
2019-02-25T18:58:35.449Z,16.97
2019-02-25T19:01:04.525Z,14.97
2019-02-25T19:03:35.443Z,15.93
2019-02-25T19:06:04.133Z,15.90
2019-02-25T19:08:33.771Z,16.50
2019-02-25T19:11:03.433Z,15.73
2019-02-25T19:13:33.062Z,17.00
2019-02-25T19:16:02.802Z,16.57
2019-02-25T19:18:34.421Z,14.93
2019-02-25T19:21:03.817Z,15.30
2019-02-25T19:23:34.955Z,14.50
2019-02-25T19:26:01.434Z,14.77
2019-02-25T19:28:31.041Z,13.50
2019-02-25T19:31:00.689Z,14.33
2019-02-25T19:33:31.287Z,13.80
2019-02-25T19:36:00.577Z,14.33
2019-02-25T19:38:32.037Z,15.10
2019-02-25T19:40:59.246Z,14.27
2019-02-25T19:43:28.821Z,14.93
2019-02-25T19:46:08.142Z,14.43
2019-02-25T19:48:37.962Z,14.37
2019-02-25T19:51:07.620Z,15.60
2019-02-25T19:53:40.266Z,14.50
2019-02-25T19:56:08.641Z,15.20
2019-02-25T19:58:39.298Z,14.03
2019-02-25T20:01:09.021Z,15.00
2019-02-25T20:03:45.675Z,14.43
2019-02-25T20:06:18.581Z,15.03
2019-02-25T20:08:48.734Z,14.87
2019-02-25T20:11:31.769Z,15.60
2019-02-25T20:20:57.613Z,15.27
2019-02-25T20:23:26.668Z,15.33
2019-02-25T20:25:57.733Z,16.40
2019-02-25T20:28:26.814Z,17.00
2019-02-25T20:30:55.193Z,15.53
2019-02-25T20:33:30.408Z,14.97
2019-02-25T20:35:56.771Z,14.67
2019-02-25T20:38:27.065Z,14.23
2019-02-25T20:40:57.878Z,14.50
2019-02-25T20:43:28.203Z,13.33
2019-02-25T20:45:58.554Z,15.80
2019-02-25T20:48:27.570Z,14.13
2019-02-25T20:50:59.691Z,14.40
2019-02-25T20:53:27.426Z,14.43
2019-02-25T20:55:57.162Z,14.47
2019-02-25T20:58:28.393Z,13.10
2019-02-25T21:00:58.737Z,12.60
2019-02-25T21:03:28.373Z,12.67
2019-02-25T21:05:58.438Z,13.00
2019-02-25T21:08:28.398Z,13.13
2019-02-25T21:11:02.476Z,13.20
2019-02-25T21:13:31.797Z,13.10
2019-02-25T21:16:02.564Z,13.00
2019-02-25T21:18:31.066Z,13.17
2019-02-25T21:21:02.947Z,13.37
2019-02-25T21:23:32.756Z,13.43
2019-02-25T21:26:06.347Z,13.97
2019-02-25T21:28:33.606Z,13.40
2019-02-25T21:31:01.953Z,14.00
2019-02-25T21:33:31.837Z,12.50
2019-02-25T21:36:02.770Z,14.03
2019-02-25T21:38:32.404Z,12.47
2019-02-25T21:41:02.006Z,13.07
2019-02-25T21:43:31.620Z,13.33
2019-02-25T21:46:02.005Z,13.73
2019-02-25T21:48:33.082Z,13.43
2019-02-25T21:51:04.302Z,12.87
2019-02-25T21:53:31.868Z,13.93
2019-02-25T21:56:04.951Z,13.30
2019-02-25T21:58:34.060Z,12.90
2019-02-25T22:01:06.223Z,12.03
2019-02-25T22:03:39.449Z,12.23
2019-02-25T22:06:05.435Z,11.97
2019-02-25T22:08:36.141Z,11.97
2019-02-25T22:11:12.525Z,11.73
2019-02-25T22:13:34.418Z,10.87
2019-02-25T22:16:05.603Z,11.60
2019-02-25T22:18:36.345Z,10.37
2019-02-25T22:21:09.227Z,10.77
2019-02-25T22:23:37.064Z,10.80
2019-02-25T22:26:05.222Z,10.83
2019-02-25T22:28:37.014Z,10.67
2019-02-25T22:31:08.279Z,10.27
2019-02-25T22:33:35.513Z,10.87
2019-02-25T22:36:05.402Z,10.17
2019-02-25T22:38:34.998Z,9.53
2019-02-25T22:41:04.621Z,9.47
2019-02-25T22:43:34.350Z,7.93
2019-02-25T22:46:05.423Z,9.80
2019-02-25T22:48:35.718Z,8.47
2019-02-25T22:51:05.187Z,8.23
2019-02-25T22:53:32.837Z,7.80
2019-02-25T22:56:02.512Z,8.23
2019-02-25T22:58:36.225Z,7.20
2019-02-25T23:01:09.477Z,6.90
2019-02-25T23:03:40.961Z,6.83
2019-02-25T23:06:11.198Z,7.40
2019-02-25T23:08:42.097Z,6.63
2019-02-25T23:11:10.371Z,6.40
2019-02-25T23:13:42.776Z,5.93
2019-02-25T23:16:11.058Z,6.73
2019-02-25T23:18:40.640Z,7.07
2019-02-25T23:21:10.282Z,6.77
2019-02-25T23:23:40.124Z,5.60
2019-02-25T23:26:10.439Z,6.27
2019-02-25T23:28:39.227Z,6.13
2019-02-25T23:31:08.815Z,6.33
2019-02-25T23:33:42.083Z,5.73
2019-02-25T23:36:10.969Z,5.73
2019-02-25T23:38:40.239Z,5.93
2019-02-25T23:41:10.569Z,7.30
2019-02-25T23:43:40.302Z,6.63
2019-02-25T23:46:09.137Z,5.17
2019-02-25T23:48:41.270Z,4.60
2019-02-25T23:51:08.462Z,5.07
2019-02-25T23:53:38.106Z,4.87
2019-02-25T23:56:08.897Z,4.53
2019-02-25T23:58:42.358Z,4.53
